Time;durP1;ratioP1;P1;durP2;ratioP2;P2;SDS_P1;SDS_P2;PMS_P1;PMS_P2;Temp;Humidity;BMP_temperature;BMP_pressure;BME280_temperature;BME280_humidity;BME280_pressure;Samples;Min_cycle;Max_cycle;Signal;HPM_P1;HPM_P2
2023/05/27 00:00:26;;;;;;;11.55;4.10;;;;;;;12.26;71.75;102811.38;5057358;28;20098;-63
2023/05/27 00:02:54;;;;;;;13.93;4.18;;;;;;;12.06;73.36;102803.44;5058926;28;20064;-65
2023/05/27 00:05:22;;;;;;;14.57;4.53;;;;;;;12.06;74.02;102808.09;5055298;28;20049;-65
2023/05/27 00:07:49;;;;;;;16.73;4.95;;;;;;;12.04;73.82;102810.22;5042848;28;20050;-64
2023/05/27 00:10:17;;;;;;;16.80;5.20;;;;;;;12.14;72.87;102807.75;5033808;28;20548;-63
2023/05/27 00:12:45;;;;;;;14.80;4.00;;;;;;;12.06;73.48;102805.34;5035747;28;20533;-63
2023/05/27 00:15:13;;;;;;;12.98;4.57;;;;;;;12.02;73.46;102799.50;5035768;28;20050;-65
2023/05/27 00:17:42;;;;;;;11.18;4.22;;;;;;;12.02;73.84;102804.13;5046755;28;20048;-63
2023/05/27 00:20:12;;;;;;;13.40;4.13;;;;;;;11.89;74.52;102800.50;5030898;28;20058;-62
2023/05/27 00:22:41;;;;;;;16.88;5.07;;;;;;;11.83;74.38;102798.63;5048584;28;20049;-63
2023/05/27 00:25:09;;;;;;;17.42;4.82;;;;;;;11.80;74.84;102793.63;5052570;28;20118;-63
2023/05/27 00:27:37;;;;;;;13.02;4.45;;;;;;;11.74;75.60;102789.09;5061732;28;20389;-62
2023/05/27 00:30:05;;;;;;;9.35;3.78;;;;;;;11.74;75.29;102791.84;5066441;28;20127;-63
2023/05/27 00:32:33;;;;;;;12.88;4.05;;;;;;;11.61;76.62;102792.78;5050164;28;20048;-62
2023/05/27 00:35:00;;;;;;;16.63;4.80;;;;;;;11.65;76.04;102787.72;5052695;28;20068;-62
2023/05/27 00:37:28;;;;;;;13.32;4.03;;;;;;;11.63;76.55;102795.31;5074739;28;20051;-63
2023/05/27 00:39:56;;;;;;;13.18;4.63;;;;;;;11.61;77.34;102787.34;5074780;28;20119;-63
2023/05/27 00:42:24;;;;;;;12.80;4.15;;;;;;;11.61;76.98;102791.97;5054248;28;20377;-64
2023/05/27 00:44:52;;;;;;;11.93;4.18;;;;;;;11.54;77.46;102791.19;5055031;28;20048;-63
2023/05/27 00:47:20;;;;;;;14.88;4.35;;;;;;;11.43;77.81;102788.16;5051458;28;20041;-64
2023/05/27 00:49:49;;;;;;;10.75;3.70;;;;;;;11.46;77.94;102790.44;5074408;28;20074;-62
2023/05/27 00:52:16;;;;;;;12.13;4.25;;;;;;;11.54;78.12;102788.47;5053134;28;20052;-62
2023/05/27 00:54:44;;;;;;;16.58;4.95;;;;;;;11.62;77.79;102777.28;5056454;28;20083;-64
2023/05/27 00:57:12;;;;;;;12.75;4.57;;;;;;;11.64;76.95;102786.03;5072689;28;20566;-63
2023/05/27 00:59:39;;;;;;;16.58;4.72;;;;;;;11.66;77.13;102773.00;5074721;28;20397;-63
2023/05/27 01:02:07;;;;;;;15.05;5.13;;;;;;;11.58;77.98;102781.50;5066068;28;20049;-63
2023/05/27 01:04:36;;;;;;;13.73;4.85;;;;;;;11.50;78.45;102785.38;5055527;28;20426;-63
2023/05/27 01:07:26;;;;;;;16.45;4.85;;;;;;;11.48;79.05;102777.41;5054681;28;20049;-63
2023/05/27 01:10:17;;;;;;;12.55;4.30;;;;;;;11.57;78.18;102780.69;5038137;28;20056;-64
2023/05/27 01:12:49;;;;;;;13.20;4.53;;;;;;;11.55;78.40;102779.25;5053191;28;20056;-65
2023/05/27 01:15:17;;;;;;;10.40;3.75;;;;;;;11.50;78.90;102775.28;5060429;28;20049;-63
2023/05/27 01:17:47;;;;;;;17.38;5.05;;;;;;;11.60;78.40;102780.22;5055414;28;20056;-63
2023/05/27 01:20:15;;;;;;;17.73;5.47;;;;;;;11.65;78.07;102771.34;5021407;28;20065;-62
2023/05/27 01:22:43;;;;;;;15.40;5.13;;;;;;;11.57;78.12;102780.69;5053534;28;20120;-62
2023/05/27 01:25:11;;;;;;;17.65;4.50;;;;;;;11.42;78.71;102766.53;5053320;28;20044;-63
2023/05/27 01:27:42;;;;;;;17.88;5.25;;;;;;;11.41;79.39;102770.34;5034131;28;20056;-63
2023/05/27 01:30:10;;;;;;;11.95;4.22;;;;;;;11.43;80.08;102774.50;5034488;28;20077;-62
2023/05/27 01:33:09;;;;;;;16.38;5.35;;;;;;;11.48;79.58;102768.38;5035555;28;20060;-62
2023/05/27 01:35:54;;;;;;;15.10;4.78;;;;;;;11.46;79.34;102770.50;5033719;28;20393;-64
2023/05/27 01:38:22;;;;;;;14.23;4.50;;;;;;;11.48;79.64;102765.66;5042314;28;20064;-63
2023/05/27 01:40:51;;;;;;;13.57;4.90;;;;;;;11.52;78.74;102773.16;5036793;28;20075;-63
2023/05/27 01:43:19;;;;;;;14.20;5.53;;;;;;;11.51;79.28;102771.47;5058436;28;20080;-64
2023/05/27 01:45:47;;;;;;;14.30;4.85;;;;;;;11.51;79.26;102755.09;5054047;28;20044;-62
2023/05/27 01:48:16;;;;;;;14.23;4.80;;;;;;;11.49;79.25;102754.47;5037387;28;20083;-64
2023/05/27 01:50:45;;;;;;;13.27;5.05;;;;;;;11.42;79.53;102764.63;5053880;28;20045;-64
2023/05/27 01:53:12;;;;;;;17.33;5.00;;;;;;;11.36;79.62;102767.47;5052910;28;20048;-64
2023/05/27 01:55:40;;;;;;;13.88;5.13;;;;;;;11.26;80.76;102768.81;5054976;28;20124;-64
2023/05/27 01:58:08;;;;;;;15.85;5.22;;;;;;;11.19;80.57;102762.56;5056806;28;20040;-65
2023/05/27 02:00:36;;;;;;;17.45;5.07;;;;;;;11.16;81.05;102762.16;5033583;28;20489;-64
2023/05/27 02:03:04;;;;;;;13.52;4.55;;;;;;;11.15;82.19;102763.25;5036584;28;20114;-65
2023/05/27 02:05:32;;;;;;;14.93;5.00;;;;;;;11.16;81.78;102763.03;5052988;28;20044;-65
2023/05/27 02:08:00;;;;;;;13.45;4.88;;;;;;;11.08;81.86;102757.84;5020907;28;20056;-63
2023/05/27 02:10:28;;;;;;;16.80;4.75;;;;;;;11.07;82.45;102765.19;5053269;28;20501;-63
2023/05/27 02:12:56;;;;;;;16.85;5.78;;;;;;;11.00;82.88;102763.59;5055307;28;20052;-65
2023/05/27 02:15:26;;;;;;;16.85;5.18;;;;;;;11.03;82.56;102769.41;5053400;28;20052;-63
2023/05/27 02:17:55;;;;;;;15.88;5.32;;;;;;;11.04;83.57;102764.78;5035365;28;20065;-65
2023/05/27 02:20:23;;;;;;;14.88;4.65;;;;;;;11.04;82.67;102759.34;5045887;28;20144;-63
2023/05/27 02:22:52;;;;;;;16.30;5.30;;;;;;;10.85;83.59;102763.94;5054732;28;20099;-64
2023/05/27 02:25:19;;;;;;;16.33;5.07;;;;;;;10.81;84.45;102768.16;5055151;28;20155;-64
2023/05/27 02:27:48;;;;;;;17.10;5.22;;;;;;;10.80;84.69;102758.28;5054196;28;20489;-64
2023/05/27 02:30:16;;;;;;;14.32;4.65;;;;;;;10.75;84.67;102758.97;5053963;28;20516;-65
2023/05/27 02:32:44;;;;;;;18.45;5.43;;;;;;;10.71;84.91;102754.19;5054005;28;20052;-63
2023/05/27 02:35:15;;;;;;;16.55;5.25;;;;;;;10.68;85.38;102755.47;5054609;28;20060;-65
2023/05/27 02:37:42;;;;;;;17.15;4.80;;;;;;;10.54;86.16;102760.16;5075898;28;20151;-64
2023/05/27 02:40:10;;;;;;;17.20;5.13;;;;;;;10.58;86.00;102755.94;5069901;28;20048;-65
2023/05/27 02:42:38;;;;;;;18.48;5.20;;;;;;;10.68;86.24;102760.91;5055369;28;20047;-62
2023/05/27 02:45:07;;;;;;;16.67;5.25;;;;;;;10.75;85.11;102767.16;5053019;28;20049;-63
2023/05/27 02:47:35;;;;;;;12.27;4.50;;;;;;;10.74;85.67;102765.47;5052853;28;20345;-63
2023/05/27 02:50:03;;;;;;;15.70;4.68;;;;;;;10.79;85.46;102762.91;5052612;28;20047;-63
2023/05/27 02:52:31;;;;;;;15.25;4.93;;;;;;;10.74;85.59;102764.63;5032099;28;20045;-62
2023/05/27 02:54:58;;;;;;;17.15;5.00;;;;;;;10.75;85.82;102769.03;5032555;28;20079;-64
2023/05/27 02:57:27;;;;;;;18.20;5.80;;;;;;;10.69;85.41;102767.19;5036457;28;20049;-62
2023/05/27 02:59:55;;;;;;;17.50;5.63;;;;;;;10.65;85.56;102773.09;5019817;28;20048;-62
2023/05/27 03:02:22;;;;;;;14.23;4.55;;;;;;;10.63;86.38;102780.66;5031665;28;20041;-62
2023/05/27 03:04:50;;;;;;;17.85;5.80;;;;;;;10.61;86.12;102763.69;5032550;28;20069;-64
2023/05/27 03:07:18;;;;;;;18.35;5.60;;;;;;;10.57;86.44;102775.25;5047497;28;20048;-63
2023/05/27 03:09:45;;;;;;;17.70;5.35;;;;;;;10.52;86.47;102777.78;5052699;28;20048;-62
2023/05/27 03:12:13;;;;;;;20.25;5.53;;;;;;;10.51;86.40;102776.09;5052342;28;20067;-64
2023/05/27 03:14:41;;;;;;;16.02;5.47;;;;;;;10.52;87.05;102778.63;5071003;28;20527;-65
2023/05/27 03:17:09;;;;;;;16.63;5.45;;;;;;;10.52;86.47;102783.25;5059197;28;20099;-63
2023/05/27 03:19:38;;;;;;;17.17;5.13;;;;;;;10.45;86.73;102783.28;5062181;28;20451;-62
2023/05/27 03:22:06;;;;;;;15.43;5.22;;;;;;;10.42;87.39;102773.66;5050427;28;20115;-62
2023/05/27 03:24:35;;;;;;;19.50;5.18;;;;;;;10.48;87.47;102771.94;5037206;28;20053;-61
2023/05/27 03:27:05;;;;;;;13.60;4.88;;;;;;;10.52;86.45;102788.69;5021118;28;20052;-62
2023/05/27 03:29:36;;;;;;;15.60;5.50;;;;;;;10.44;86.88;102762.53;5016595;28;20056;-63
2023/05/27 03:32:05;;;;;;;16.48;5.40;;;;;;;10.44;87.77;102768.00;5046206;28;20128;-65
2023/05/27 03:34:34;;;;;;;16.80;5.10;;;;;;;10.45;87.14;102766.94;5036970;28;20061;-62
2023/05/27 03:37:02;;;;;;;18.60;5.47;;;;;;;10.41;87.12;102769.28;5051938;28;20059;-63
2023/05/27 03:39:57;;;;;;;15.30;4.97;;;;;;;10.42;87.14;102761.94;5033924;28;20412;-63
2023/05/27 03:42:25;;;;;;;16.95;5.15;;;;;;;10.37;87.46;102757.13;5036407;28;20053;-63
2023/05/27 03:44:52;;;;;;;15.05;5.10;;;;;;;10.32;87.73;102756.09;5020115;28;20075;-64
2023/05/27 03:47:21;;;;;;;25.17;6.20;;;;;;;10.26;88.10;102756.94;5036354;28;20045;-62
2023/05/27 03:49:49;;;;;;;16.80;5.15;;;;;;;10.13;88.77;102758.69;5034390;28;20053;-62
2023/05/27 03:52:18;;;;;;;16.63;5.10;;;;;;;10.02;89.95;102753.91;5067115;28;20048;-62
2023/05/27 03:54:46;;;;;;;19.35;5.88;;;;;;;10.01;90.19;102749.53;5055824;28;20105;-63
2023/05/27 03:57:14;;;;;;;13.40;4.90;;;;;;;9.92;90.74;102753.56;5054883;28;20048;-62
2023/05/27 03:59:42;;;;;;;15.38;5.40;;;;;;;9.92;91.00;102748.13;5052685;28;20045;-62
2023/05/27 04:02:09;;;;;;;18.00;5.20;;;;;;;9.96;91.79;102746.63;5019121;28;20489;-63
2023/05/27 04:04:37;;;;;;;15.52;5.55;;;;;;;10.10;91.14;102744.66;5058641;28;20147;-64
2023/05/27 04:07:05;;;;;;;14.23;4.82;;;;;;;10.17;90.00;102749.06;5006606;28;20101;-64
2023/05/27 04:09:34;;;;;;;18.88;5.93;;;;;;;10.21;89.55;102744.81;5065341;28;20044;-64
2023/05/27 04:12:01;;;;;;;18.60;5.45;;;;;;;10.12;89.87;102740.66;5068892;28;20053;-63
2023/05/27 04:14:29;;;;;;;14.75;5.68;;;;;;;10.11;90.43;102746.34;5063665;28;20053;-62
2023/05/27 04:16:58;;;;;;;15.43;4.95;;;;;;;10.14;90.79;102749.47;5061895;28;20045;-66
2023/05/27 04:19:25;;;;;;;18.35;5.93;;;;;;;10.24;90.23;102749.00;5059077;28;20114;-63
2023/05/27 04:21:55;;;;;;;13.95;5.00;;;;;;;10.26;89.80;102737.88;5055553;28;20051;-64
2023/05/27 04:24:25;;;;;;;17.60;5.38;;;;;;;10.22;90.14;102732.88;5055616;28;20482;-62
2023/05/27 04:26:53;;;;;;;17.08;6.22;;;;;;;10.17;90.11;102737.28;5055953;28;20041;-63
2023/05/27 04:29:22;;;;;;;13.82;5.32;;;;;;;10.13;90.81;102739.63;5055061;28;20049;-65
2023/05/27 04:31:50;;;;;;;17.13;5.40;;;;;;;10.14;91.21;102727.66;5037244;28;20037;-62
2023/05/27 04:34:21;;;;;;;17.85;5.70;;;;;;;10.14;90.80;102733.13;5055773;28;20041;-63
2023/05/27 04:36:49;;;;;;;15.85;5.68;;;;;;;10.14;91.35;102733.13;5034188;28;20120;-62
2023/05/27 04:39:21;;;;;;;16.60;5.28;;;;;;;10.17;91.22;102734.56;5018931;28;20124;-63
2023/05/27 04:41:50;;;;;;;16.52;4.90;;;;;;;10.19;91.08;102733.28;5035967;28;20140;-62
2023/05/27 04:44:28;;;;;;;20.67;6.10;;;;;;;10.21;91.10;102733.09;5050570;28;20051;-63
2023/05/27 04:46:58;;;;;;;15.60;5.35;;;;;;;10.19;91.50;102729.75;5052836;28;20124;-64
2023/05/27 04:49:26;;;;;;;16.65;5.30;;;;;;;10.19;91.69;102730.56;5067083;28;20410;-63
2023/05/27 04:51:55;;;;;;;16.23;5.30;;;;;;;10.08;92.20;102725.84;5051032;28;20135;-65
2023/05/27 04:54:23;;;;;;;18.13;5.80;;;;;;;10.04;92.92;102727.31;5023748;28;20049;-62
2023/05/27 04:56:51;;;;;;;15.77;5.75;;;;;;;10.08;93.14;102722.25;5058183;28;20400;-63
2023/05/27 04:59:58;;;;;;;;;;;;;;;10.13;93.00;102717.84;5038836;28;20095;-63
2023/05/27 05:02:25;;;;;;;19.33;6.40;;;;;;;10.18;92.37;102726.19;5050192;28;19921;-63
2023/05/27 05:05:02;;;;;;;21.48;6.28;;;;;;;10.13;92.92;102725.19;5043272;28;20049;-63
2023/05/27 05:07:30;;;;;;;22.20;6.40;;;;;;;10.11;93.73;102711.78;5053827;28;20045;-64
2023/05/27 05:09:58;;;;;;;20.65;5.90;;;;;;;10.16;93.74;102714.66;5053348;28;20056;-64
2023/05/27 05:12:35;;;;;;;19.00;6.07;;;;;;;10.21;93.19;102717.56;5055074;28;20651;-64
2023/05/27 05:15:03;;;;;;;23.08;6.65;;;;;;;10.17;93.55;102720.94;5053871;28;20101;-63
2023/05/27 05:17:31;;;;;;;20.15;6.53;;;;;;;10.19;93.55;102714.22;5038163;28;20076;-65
2023/05/27 05:19:58;;;;;;;20.77;6.35;;;;;;;10.09;94.50;102715.78;5052828;28;20059;-64
2023/05/27 05:22:28;;;;;;;14.73;5.63;;;;;;;10.10;95.01;102715.56;5053063;28;20114;-64
2023/05/27 05:24:56;;;;;;;20.20;6.28;;;;;;;10.12;95.22;102716.16;5039663;28;20132;-63
2023/05/27 05:27:31;;;;;;;21.13;6.40;;;;;;;10.13;95.13;102715.13;5054746;28;20048;-63
2023/05/27 05:29:59;;;;;;;18.08;6.22;;;;;;;10.09;95.55;102707.59;5052766;28;20129;-64
2023/05/27 05:32:26;;;;;;;21.00;5.55;;;;;;;10.14;95.76;102699.59;5062343;28;20043;-63
2023/05/27 05:34:54;;;;;;;17.85;5.40;;;;;;;10.22;95.63;102707.50;5045517;28;20116;-64
2023/05/27 05:37:23;;;;;;;19.42;5.78;;;;;;;10.20;95.38;102702.28;5055023;28;20046;-64
2023/05/27 05:39:53;;;;;;;22.65;6.13;;;;;;;10.27;95.29;102710.44;5068505;28;20079;-63
2023/05/27 05:42:22;;;;;;;19.27;5.53;;;;;;;10.37;95.23;102704.53;5053929;28;20504;-64
2023/05/27 05:44:49;;;;;;;19.25;5.82;;;;;;;10.47;94.76;102698.59;5020597;28;20110;-63
2023/05/27 05:47:17;;;;;;;16.77;5.50;;;;;;;10.53;94.52;102690.34;5053258;28;20068;-63
2023/05/27 05:49:52;;;;;;;17.73;6.17;;;;;;;10.60;94.02;102693.84;5053867;28;20144;-63
2023/05/27 05:52:21;;;;;;;15.95;5.38;;;;;;;10.61;93.53;102700.97;5053822;28;20295;-65
2023/05/27 05:54:48;;;;;;;22.88;6.22;;;;;;;10.58;94.38;102695.97;5056657;28;20049;-63
2023/05/27 05:57:16;;;;;;;24.10;6.43;;;;;;;10.64;94.28;102691.53;5053911;28;20057;-63
2023/05/27 05:59:45;;;;;;;20.90;5.72;;;;;;;10.68;94.58;102689.19;5037238;28;20067;-62
2023/05/27 06:02:13;;;;;;;18.27;5.75;;;;;;;10.70;94.07;102682.44;5036966;28;20045;-63
2023/05/27 06:04:42;;;;;;;25.23;6.10;;;;;;;10.77;93.74;102688.66;5036593;28;20041;-63
2023/05/27 06:07:10;;;;;;;18.17;5.43;;;;;;;10.82;93.38;102682.53;5036248;28;20102;-63
2023/05/27 06:09:42;;;;;;;18.48;6.15;;;;;;;10.74;94.24;102693.75;5053534;28;20045;-63
2023/05/27 06:12:18;;;;;;;18.52;5.93;;;;;;;10.78;93.72;102689.53;5051657;28;20049;-63
2023/05/27 06:14:47;;;;;;;23.45;6.90;;;;;;;10.77;94.40;102682.38;5053509;28;20071;-62
2023/05/27 06:17:24;;;;;;;21.27;6.03;;;;;;;10.79;94.63;102688.47;5038339;28;20070;-64
2023/05/27 06:19:52;;;;;;;19.98;5.97;;;;;;;10.87;93.65;102682.69;5053023;28;20049;-63
2023/05/27 06:22:20;;;;;;;20.98;6.25;;;;;;;10.90;93.24;102686.91;5032725;28;20045;-63
2023/05/27 06:25:07;;;;;;;21.85;5.63;;;;;;;10.86;93.84;102686.50;5019803;28;20057;-63
2023/05/27 06:27:51;;;;;;;21.67;6.45;;;;;;;10.84;94.81;102678.53;5044850;28;20053;-64
2023/05/27 06:30:19;;;;;;;19.70;6.55;;;;;;;10.89;95.35;102680.59;5036519;28;20045;-66
2023/05/27 06:32:48;;;;;;;19.10;6.07;;;;;;;10.94;94.66;102677.19;5031937;28;20053;-64
2023/05/27 06:35:17;;;;;;;21.58;5.85;;;;;;;10.98;93.64;102679.25;5049772;28;20119;-64
2023/05/27 06:37:47;;;;;;;19.35;5.65;;;;;;;11.02;93.64;102674.19;5049626;28;20108;-65
2023/05/27 06:40:16;;;;;;;14.23;4.70;;;;;;;11.10;93.43;102687.53;5044229;28;20044;-64
2023/05/27 06:42:44;;;;;;;17.90;5.75;;;;;;;11.18;92.43;102678.22;5051536;28;20405;-66
2023/05/27 06:45:35;;;;;;;20.50;6.25;;;;;;;11.22;92.49;102682.16;5042721;28;20056;-65
2023/05/27 06:48:22;;;;;;;26.75;7.18;;;;;;;11.17;92.35;102676.56;5055235;28;20404;-64
2023/05/27 06:50:49;;;;;;;24.55;7.13;;;;;;;11.13;93.06;102669.88;5073189;28;20041;-66
2023/05/27 06:53:17;;;;;;;21.70;6.95;;;;;;;11.14;94.31;102671.56;5067052;28;20119;-64
2023/05/27 06:55:56;;;;;;;24.13;7.40;;;;;;;11.17;93.68;102665.63;5013224;28;20046;-63
2023/05/27 06:58:44;;;;;;;24.40;6.82;;;;;;;11.18;93.29;102656.38;5023014;28;20057;-65
2023/05/27 07:01:15;;;;;;;19.95;7.68;;;;;;;11.22;93.40;102663.06;5006931;28;20108;-65
2023/05/27 07:03:47;;;;;;;24.63;7.78;;;;;;;11.30;93.09;102646.38;5020357;28;20060;-64
2023/05/27 07:06:21;;;;;;;24.85;7.63;;;;;;;11.33;93.33;102648.66;5052512;28;20044;-64
2023/05/27 07:08:52;;;;;;;24.13;6.95;;;;;;;11.30;93.25;102655.41;5036179;28;20041;-64
2023/05/27 07:11:29;;;;;;;22.90;7.80;;;;;;;11.34;94.09;102642.13;5035927;28;20048;-65
2023/05/27 07:14:02;;;;;;;21.13;6.85;;;;;;;11.43;92.96;102651.69;5052363;28;20493;-65
2023/05/27 07:16:32;;;;;;;21.15;7.05;;;;;;;11.44;92.99;102653.34;5049797;28;20049;-65
2023/05/27 07:19:05;;;;;;;23.73;7.63;;;;;;;11.48;92.67;102651.81;5052686;28;20045;-66
2023/05/27 07:21:40;;;;;;;24.25;6.55;;;;;;;11.55;93.13;102653.66;5036694;28;20400;-63
2023/05/27 07:24:14;;;;;;;24.95;7.30;;;;;;;11.62;93.86;102657.13;5054016;28;20493;-64
2023/05/27 07:26:42;;;;;;;20.50;6.57;;;;;;;11.68;92.26;102656.19;5072210;28;20051;-64
2023/05/27 07:29:11;;;;;;;24.73;7.10;;;;;;;11.73;92.26;102653.59;5069401;28;20501;-63
2023/05/27 07:31:58;;;;;;;20.85;7.32;;;;;;;11.77;91.88;102648.53;5062912;28;20121;-65
2023/05/27 07:34:30;;;;;;;21.98;6.85;;;;;;;11.84;91.73;102650.09;5072394;28;20048;-64
2023/05/27 07:36:58;;;;;;;24.48;7.25;;;;;;;11.88;92.42;102637.69;5072030;28;20040;-62
2023/05/27 07:39:26;;;;;;;22.65;7.13;;;;;;;11.97;91.30;102643.63;5072299;28;20053;-63
2023/05/27 07:41:54;;;;;;;20.25;6.38;;;;;;;12.02;90.87;102641.03;5064404;28;20060;-64
2023/05/27 07:44:23;;;;;;;26.20;7.70;;;;;;;12.04;91.31;102627.16;5049779;28;20072;-65
2023/05/27 07:46:51;;;;;;;20.98;7.30;;;;;;;12.08;91.86;102634.66;5034679;28;20045;-63
2023/05/27 07:49:20;;;;;;;32.92;7.57;;;;;;;12.11;91.48;102625.97;5054450;28;20132;-64
2023/05/27 07:52:08;;;;;;;21.08;6.88;;;;;;;12.16;90.84;102619.81;5048182;28;20073;-65
2023/05/27 07:54:36;;;;;;;21.60;7.15;;;;;;;12.19;91.36;102613.88;5028048;28;20049;-65
2023/05/27 07:57:18;;;;;;;18.05;7.05;;;;;;;12.24;91.27;102616.75;5063281;28;20136;-64
2023/05/27 07:59:47;;;;;;;25.63;7.53;;;;;;;12.28;90.40;102611.63;5042870;28;20098;-65
2023/05/27 08:02:16;;;;;;;21.25;7.43;;;;;;;12.32;90.47;102613.66;5060913;28;20053;-66
2023/05/27 08:04:45;;;;;;;27.23;7.53;;;;;;;12.41;91.36;102616.03;5045114;28;20116;-63
2023/05/27 08:07:27;;;;;;;27.60;8.07;;;;;;;12.49;91.22;102615.72;5055359;28;20103;-64
2023/05/27 08:10:23;;;;;;;21.45;6.68;;;;;;;12.57;89.50;102615.34;5054770;28;20057;-65
2023/05/27 08:13:09;;;;;;;19.48;7.07;;;;;;;12.63;88.97;102603.47;5049953;28;20061;-65
2023/05/27 08:15:48;;;;;;;23.10;7.50;;;;;;;12.69;89.55;102607.97;5038342;28;20052;-67
2023/05/27 08:18:38;;;;;;;40.60;10.70;;;;;;;12.78;91.36;102601.06;5052130;28;20053;-66
2023/05/27 08:21:16;;;;;;;21.58;7.10;;;;;;;12.82;88.74;102595.97;5056269;28;20065;-65
2023/05/27 08:23:55;;;;;;;20.63;7.13;;;;;;;12.84;88.14;102598.44;5061392;28;20075;-64
2023/05/27 08:26:33;;;;;;;20.63;7.35;;;;;;;12.86;88.25;102588.94;5065045;28;20041;-65
2023/05/27 08:29:19;;;;;;;;;;;;;;;12.91;87.47;102580.81;5067417;28;20056;-63
2023/05/27 08:32:05;;;;;;;25.80;8.57;;;;;;;13.01;86.29;102577.47;5075763;28;19983;-64
2023/05/27 08:34:33;;;;;;;28.30;7.43;;;;;;;13.09;85.49;102571.66;5075231;28;20060;-64
2023/05/27 08:37:03;;;;;;;24.65;7.85;;;;;;;13.15;85.98;102562.44;5035592;28;20112;-64
2023/05/27 08:39:37;;;;;;;33.28;8.68;;;;;;;13.22;86.13;102563.13;5029110;28;20099;-64
2023/05/27 08:42:34;;;;;;;27.77;8.10;;;;;;;13.27;85.67;102565.19;5036268;28;20061;-65
2023/05/27 08:45:03;;;;;;;25.95;7.57;;;;;;;13.37;85.10;102559.06;5035487;28;20528;-64
2023/05/27 08:47:31;;;;;;;22.77;8.35;;;;;;;13.41;84.66;102561.09;5037533;28;20049;-64
2023/05/27 08:50:00;;;;;;;21.48;7.20;;;;;;;13.42;84.41;102562.75;5055428;28;20056;-64
2023/05/27 08:52:29;;;;;;;21.77;7.90;;;;;;;13.45;83.15;102552.41;5057001;28;20056;-64
2023/05/27 08:54:57;;;;;;;26.83;8.57;;;;;;;13.49;82.95;102548.91;5056056;28;20481;-63
2023/05/27 08:57:35;;;;;;;25.38;8.00;;;;;;;13.53;82.82;102538.31;5057361;28;20049;-63
2023/05/27 09:00:11;;;;;;;23.38;8.30;;;;;;;13.65;83.44;102539.06;5045468;28;20053;-65
2023/05/27 09:02:40;;;;;;;24.90;8.32;;;;;;;13.75;83.66;102538.41;5041980;28;20052;-65
2023/05/27 09:05:09;;;;;;;22.42;7.47;;;;;;;13.79;82.35;102534.13;5040495;28;20109;-65
2023/05/27 09:07:39;;;;;;;18.73;7.47;;;;;;;13.83;82.74;102538.03;5045347;28;20041;-63
2023/05/27 09:10:07;;;;;;;24.00;8.15;;;;;;;13.94;82.20;102536.28;5057686;28;20080;-65
2023/05/27 09:12:35;;;;;;;24.00;7.82;;;;;;;14.00;80.99;102525.16;5057162;28;20115;-65
2023/05/27 09:15:04;;;;;;;23.10;7.20;;;;;;;14.07;80.17;102534.03;5057483;28;20078;-64
2023/05/27 09:17:32;;;;;;;22.23;7.82;;;;;;;14.06;79.26;102523.31;5055922;28;20044;-63
2023/05/27 09:20:00;;;;;;;22.77;8.13;;;;;;;14.06;80.31;102518.66;5055901;28;20093;-64
2023/05/27 09:22:31;;;;;;;21.50;7.75;;;;;;;14.14;79.50;102524.81;5023259;28;20049;-64
2023/05/27 09:24:59;;;;;;;21.13;7.38;;;;;;;14.16;78.14;102518.00;5054656;28;20053;-65
2023/05/27 09:27:31;;;;;;;21.60;8.02;;;;;;;14.31;77.80;102522.03;5054352;28;20056;-65
2023/05/27 09:30:07;;;;;;;25.30;8.13;;;;;;;14.40;76.89;102515.88;5038197;28;20424;-64
2023/05/27 09:32:35;;;;;;;27.17;8.05;;;;;;;14.48;76.51;102503.66;5055449;28;20069;-64
2023/05/27 09:35:07;;;;;;;28.92;9.13;;;;;;;14.61;76.18;102510.72;5034682;28;20053;-64
2023/05/27 09:37:35;;;;;;;25.25;8.55;;;;;;;14.66;75.21;102510.78;5050992;28;20045;-64
2023/05/27 09:40:12;;;;;;;28.05;9.35;;;;;;;14.72;75.05;102504.31;5033958;28;20099;-64
2023/05/27 09:42:47;;;;;;;24.52;7.75;;;;;;;14.79;74.69;102510.44;5041007;28;20059;-65
2023/05/27 09:45:17;;;;;;;24.87;7.43;;;;;;;14.82;73.67;102503.59;5047910;28;20045;-64
2023/05/27 09:47:51;;;;;;;24.70;8.18;;;;;;;14.94;72.72;102500.72;5054335;28;20068;-63
2023/05/27 09:50:21;;;;;;;23.17;7.90;;;;;;;15.01;69.96;102501.31;5053628;28;20079;-64
2023/05/27 09:52:49;;;;;;;24.55;8.73;;;;;;;15.04;71.22;102496.16;5054826;28;20119;-65
2023/05/27 09:55:33;;;;;;;23.63;8.05;;;;;;;15.00;72.13;102492.28;5033858;28;20053;-65
2023/05/27 09:58:01;;;;;;;30.35;7.50;;;;;;;14.98;70.06;102482.63;4697413;28;10000310;-64
2023/05/27 10:00:30;;;;;;;23.73;7.50;;;;;;;15.00;69.23;102484.03;5043830;28;20098;-63
2023/05/27 10:02:59;;;;;;;24.55;7.05;;;;;;;15.02;69.62;102481.88;5056237;28;20052;-65
2023/05/27 10:05:28;;;;;;;23.70;6.95;;;;;;;15.01;70.00;102476.63;5063457;28;20561;-65
2023/05/27 10:07:55;;;;;;;25.08;8.27;;;;;;;14.98;69.91;102474.41;5016450;28;20124;-66
2023/05/27 10:10:26;;;;;;;22.10;7.38;;;;;;;15.05;69.99;102475.03;5048971;28;20053;-65
2023/05/27 10:12:55;;;;;;;22.95;7.20;;;;;;;15.21;68.80;102468.63;5033997;28;20708;-65
2023/05/27 10:15:31;;;;;;;22.75;6.60;;;;;;;15.29;67.58;102468.13;5030598;28;20564;-65
2023/05/27 10:18:01;;;;;;;25.15;7.15;;;;;;;15.30;67.40;102461.56;5033359;28;20440;-66
2023/05/27 10:20:34;;;;;;;26.20;7.40;;;;;;;15.27;67.88;102456.63;5049443;28;20167;-65
2023/05/27 10:23:27;;;;;;;25.13;6.70;;;;;;;15.35;65.43;102463.53;5049842;28;20131;-65
2023/05/27 10:26:05;;;;;;;17.50;5.82;;;;;;;15.49;62.65;102464.78;5052244;28;20049;-65
2023/05/27 10:28:40;;;;;;;19.08;6.55;;;;;;;15.62;62.98;102458.00;5070441;28;20094;-66
2023/05/27 10:31:18;;;;;;;31.53;7.13;;;;;;;15.83;64.65;102460.97;5060935;28;20095;-65
2023/05/27 10:33:48;;;;;;;27.90;7.28;;;;;;;15.92;63.93;102456.63;5050590;28;20044;-66
2023/05/27 10:36:17;;;;;;;21.15;7.07;;;;;;;15.84;64.05;102444.19;5051674;28;20056;-65
2023/05/27 10:38:56;;;;;;;22.52;6.50;;;;;;;15.85;63.70;102450.50;5048363;28;20053;-65
2023/05/27 10:41:24;;;;;;;20.63;6.10;;;;;;;15.90;63.72;102447.84;5033006;28;20048;-65
2023/05/27 10:43:59;;;;;;;19.58;6.97;;;;;;;15.84;63.31;102448.88;5049395;28;20485;-65
2023/05/27 10:46:37;;;;;;;25.90;7.30;;;;;;;15.89;63.46;102440.66;5030120;28;20609;-64
2023/05/27 10:49:14;;;;;;;21.40;6.20;;;;;;;15.97;62.93;102432.75;5038579;28;20049;-65
2023/05/27 10:51:44;;;;;;;20.05;6.22;;;;;;;16.06;62.48;102446.00;5049056;28;20052;-65
2023/05/27 10:54:12;;;;;;;19.95;6.70;;;;;;;16.15;61.10;102434.22;5050428;28;20094;-64
2023/05/27 10:56:50;;;;;;;20.38;6.32;;;;;;;16.16;60.81;102433.16;5045505;28;20053;-64
2023/05/27 10:59:22;;;;;;;17.60;5.90;;;;;;;16.14;60.83;102426.25;5038488;28;20425;-63
2023/05/27 11:01:53;;;;;;;23.73;7.15;;;;;;;16.15;62.26;102417.72;5029995;28;20051;-66
2023/05/27 11:04:22;;;;;;;16.92;5.80;;;;;;;16.24;59.06;102425.50;5012654;28;20057;-64
2023/05/27 11:07:00;;;;;;;14.65;5.55;;;;;;;16.30;58.04;102416.97;5040220;28;20052;-65
2023/05/27 11:09:48;;;;;;;20.25;6.22;;;;;;;16.43;57.84;102417.56;5046979;28;20140;-64
2023/05/27 11:12:23;;;;;;;19.35;5.60;;;;;;;16.36;57.16;102406.84;5049172;28;20071;-64
2023/05/27 11:14:57;;;;;;;21.08;5.55;;;;;;;16.41;59.08;102409.63;5050015;28;20114;-65
2023/05/27 11:17:28;;;;;;;20.45;5.68;;;;;;;16.62;56.97;102407.78;5058186;28;20050;-63
2023/05/27 11:19:59;;;;;;;19.70;6.43;;;;;;;16.58;57.78;102393.72;5045233;28;20057;-64
2023/05/27 11:22:30;;;;;;;18.25;6.20;;;;;;;16.58;58.17;102399.22;5032625;28;20048;-64
2023/05/27 11:25:02;;;;;;;20.75;6.07;;;;;;;16.63;58.44;102387.41;5049797;28;20102;-63
2023/05/27 11:27:38;;;;;;;24.90;6.40;;;;;;;16.71;58.34;102392.38;5049625;28;20045;-65
2023/05/27 11:30:09;;;;;;;24.90;6.53;;;;;;;16.73;58.78;102389.34;5047628;28;20049;-63
2023/05/27 11:32:38;;;;;;;23.75;6.15;;;;;;;16.73;59.07;102387.41;5049991;28;20057;-63
2023/05/27 11:35:12;;;;;;;20.77;6.20;;;;;;;16.71;59.33;102381.34;5049021;28;20045;-64